createdAt,value
2017-09-16T00:00:37.891Z,68.70
2017-09-16T00:03:06.905Z,68.70
2017-09-16T00:05:36.754Z,68.40
2017-09-16T00:08:04.217Z,68.30
2017-09-16T00:10:31.671Z,68.30
2017-09-16T00:13:00.197Z,68.50
2017-09-16T00:15:28.087Z,69.00
2017-09-16T00:17:56.457Z,69.60
2017-09-16T00:20:23.959Z,69.00
2017-09-16T00:22:51.501Z,68.90
2017-09-16T00:25:19.603Z,69.50
2017-09-16T00:27:47.370Z,69.80
2017-09-16T00:30:15.648Z,69.90
2017-09-16T00:32:43.173Z,69.90
2017-09-16T00:35:10.689Z,69.90
2017-09-16T00:37:38.203Z,69.80
2017-09-16T00:40:05.844Z,69.70
2017-09-16T00:42:34.341Z,69.40
2017-09-16T00:45:02.214Z,69.50
2017-09-16T00:47:31.206Z,69.30
2017-09-16T00:50:00.044Z,69.20
2017-09-16T00:52:28.933Z,69.40
2017-09-16T00:54:57.562Z,69.40
2017-09-16T00:57:25.364Z,69.30
2017-09-16T00:59:54.583Z,69.50
2017-09-16T01:02:23.184Z,69.40
2017-09-16T01:04:50.675Z,69.60
2017-09-16T01:07:18.709Z,69.70
2017-09-16T01:09:48.197Z,70.00
2017-09-16T01:12:17.066Z,70.20
2017-09-16T01:14:45.993Z,70.20
2017-09-16T01:17:13.455Z,70.20
2017-09-16T01:19:42.469Z,70.90
2017-09-16T01:22:10.032Z,70.10
2017-09-16T01:24:37.592Z,70.20
2017-09-16T01:27:05.605Z,70.30
2017-09-16T01:29:33.114Z,70.40
2017-09-16T01:32:00.650Z,70.30
2017-09-16T01:34:28.943Z,70.40
2017-09-16T01:36:57.181Z,70.20
2017-09-16T01:39:25.027Z,70.90
2017-09-16T01:41:53.615Z,70.40
2017-09-16T01:44:22.782Z,70.40
2017-09-16T01:46:50.882Z,70.40
2017-09-16T01:49:18.418Z,70.30
2017-09-16T01:51:45.946Z,70.50
2017-09-16T01:54:14.627Z,70.90
2017-09-16T01:56:43.452Z,70.80
2017-09-16T01:59:11.339Z,70.80
2017-09-16T02:01:40.761Z,70.90
2017-09-16T02:04:08.429Z,70.80
2017-09-16T02:06:36.149Z,70.90
2017-09-16T02:09:03.681Z,70.80
2017-09-16T02:11:31.384Z,70.90
2017-09-16T02:13:58.998Z,71.10
2017-09-16T02:16:27.032Z,71.00
2017-09-16T02:18:54.529Z,71.00
2017-09-16T02:21:22.862Z,71.20
2017-09-16T02:23:50.338Z,71.10
2017-09-16T02:26:19.535Z,71.30
2017-09-16T02:28:48.323Z,71.10
2017-09-16T02:31:16.761Z,71.00
2017-09-16T02:33:45.028Z,71.10
2017-09-16T02:36:13.504Z,71.10
2017-09-16T02:38:40.985Z,71.10
2017-09-16T02:41:08.522Z,71.20
2017-09-16T02:43:35.991Z,71.10
2017-09-16T02:46:04.083Z,71.20
2017-09-16T02:48:31.731Z,71.20
2017-09-16T02:50:59.238Z,71.00
2017-09-16T02:53:26.726Z,70.90
2017-09-16T02:55:54.594Z,70.90
2017-09-16T02:58:23.222Z,71.00
2017-09-16T03:00:52.019Z,70.90
2017-09-16T03:03:20.510Z,70.90
2017-09-16T03:05:49.339Z,71.10
2017-09-16T03:08:18.627Z,71.20
2017-09-16T03:10:47.128Z,71.20
2017-09-16T03:13:14.576Z,71.30
2017-09-16T03:15:42.691Z,71.30
2017-09-16T03:18:10.986Z,71.40
2017-09-16T03:20:38.460Z,71.40
2017-09-16T03:23:05.958Z,71.40
2017-09-16T03:25:34.127Z,71.50
2017-09-16T03:28:02.222Z,71.70
2017-09-16T03:30:30.450Z,72.10
2017-09-16T03:32:58.040Z,72.60
2017-09-16T03:35:27.701Z,72.30
2017-09-16T03:37:55.383Z,72.30
2017-09-16T03:40:23.203Z,72.40
2017-09-16T03:42:52.001Z,72.60
2017-09-16T03:45:20.318Z,72.70
2017-09-16T03:47:48.156Z,72.60
2017-09-16T03:50:16.472Z,72.70
2017-09-16T03:52:45.084Z,72.80
2017-09-16T03:55:13.690Z,72.70
2017-09-16T03:57:41.382Z,72.60
2017-09-16T04:00:09.722Z,72.50
2017-09-16T04:02:46.489Z,72.70
2017-09-16T04:05:13.996Z,72.60
2017-09-16T04:07:42.706Z,73.10
2017-09-16T04:10:10.188Z,72.70
2017-09-16T04:12:37.673Z,72.80
2017-09-16T04:15:05.641Z,72.80
2017-09-16T04:17:34.817Z,72.60
2017-09-16T04:20:02.294Z,72.70
2017-09-16T04:22:29.830Z,72.70
2017-09-16T04:24:58.234Z,72.80
2017-09-16T04:27:26.744Z,72.80
2017-09-16T04:29:54.219Z,72.80
2017-09-16T04:32:21.675Z,72.90
2017-09-16T04:34:49.830Z,73.10
2017-09-16T04:37:17.300Z,73.10
2017-09-16T04:39:44.785Z,73.20
2017-09-16T04:42:12.325Z,73.30
2017-09-16T04:44:40.283Z,73.10
2017-09-16T04:47:09.916Z,73.00
2017-09-16T04:49:38.136Z,72.80
2017-09-16T04:52:05.608Z,72.70
2017-09-16T04:54:33.080Z,72.70
2017-09-16T04:57:01.272Z,72.70
2017-09-16T04:59:28.734Z,72.50
2017-09-16T05:01:56.600Z,72.60
2017-09-16T05:04:24.067Z,72.60
2017-09-16T05:06:52.030Z,72.70
2017-09-16T05:09:19.512Z,72.50
2017-09-16T05:11:46.964Z,72.50
2017-09-16T05:14:14.621Z,72.40
2017-09-16T05:16:42.493Z,72.40
2017-09-16T05:19:10.797Z,72.60
2017-09-16T05:21:38.521Z,72.50
2017-09-16T05:24:06.008Z,72.30
2017-09-16T05:26:34.273Z,72.50
2017-09-16T05:29:01.887Z,72.20
2017-09-16T05:31:29.338Z,72.00
2017-09-16T05:33:57.036Z,72.10
2017-09-16T05:36:24.867Z,72.10
2017-09-16T05:38:53.238Z,72.00
2017-09-16T05:41:21.450Z,72.00
2017-09-16T05:43:50.245Z,72.00
2017-09-16T05:46:18.620Z,71.80
2017-09-16T05:48:46.885Z,72.00
2017-09-16T05:51:15.135Z,71.80
2017-09-16T05:53:42.996Z,71.70
2017-09-16T05:56:11.628Z,72.00
2017-09-16T05:58:39.413Z,71.90
2017-09-16T06:01:07.978Z,71.80
2017-09-16T06:03:35.930Z,71.80
2017-09-16T06:06:03.769Z,71.80
2017-09-16T06:08:31.621Z,71.80
2017-09-16T06:10:59.078Z,72.00
2017-09-16T06:13:27.303Z,72.00
2017-09-16T06:15:54.968Z,71.90
2017-09-16T06:18:22.722Z,71.60
2017-09-16T06:20:51.041Z,72.00
2017-09-16T06:23:19.508Z,72.00
2017-09-16T06:25:47.298Z,71.90
2017-09-16T06:28:15.664Z,71.80
2017-09-16T06:30:43.982Z,72.20
2017-09-16T06:33:13.159Z,71.70
2017-09-16T06:35:41.198Z,71.90
2017-09-16T06:38:09.912Z,71.70
2017-09-16T06:40:37.432Z,71.70
2017-09-16T06:43:04.908Z,71.40
2017-09-16T06:45:32.411Z,71.40
2017-09-16T06:48:00.118Z,71.50
2017-09-16T06:50:28.342Z,71.60
2017-09-16T06:52:55.867Z,71.60
2017-09-16T06:55:23.706Z,71.60
2017-09-16T06:57:52.312Z,71.60
2017-09-16T07:00:19.770Z,71.70
2017-09-16T07:02:47.913Z,71.50
2017-09-16T07:05:15.486Z,71.30
2017-09-16T07:07:43.926Z,71.60
2017-09-16T07:10:12.210Z,71.60
2017-09-16T07:12:39.787Z,71.50
2017-09-16T07:15:07.879Z,71.60
2017-09-16T07:17:35.838Z,72.50
2017-09-16T07:20:04.706Z,71.10
2017-09-16T07:22:32.581Z,71.10
2017-09-16T07:25:00.725Z,71.30
2017-09-16T07:27:29.397Z,71.00
2017-09-16T07:29:57.606Z,70.80
2017-09-16T07:32:25.321Z,70.70
2017-09-16T07:34:53.180Z,70.70
2017-09-16T07:37:20.666Z,70.60
2017-09-16T07:39:48.152Z,70.50
2017-09-16T07:42:15.631Z,70.40
2017-09-16T07:44:43.104Z,70.20
2017-09-16T07:47:12.001Z,70.20
2017-09-16T07:49:40.777Z,70.70
2017-09-16T07:52:09.018Z,71.10
2017-09-16T07:54:37.677Z,70.70
2017-09-16T07:57:06.571Z,70.60
2017-09-16T07:59:35.290Z,70.10
2017-09-16T08:02:03.267Z,70.10
2017-09-16T08:04:30.775Z,69.90
2017-09-16T08:06:58.674Z,69.90
2017-09-16T08:09:27.230Z,70.80
2017-09-16T08:11:55.050Z,69.90
2017-09-16T08:14:22.617Z,70.10
2017-09-16T08:16:50.073Z,69.80
2017-09-16T08:19:17.931Z,69.30
2017-09-16T08:21:45.393Z,69.30
2017-09-16T08:24:12.938Z,69.30
2017-09-16T08:26:43.531Z,69.00
2017-09-16T08:29:11.744Z,70.30
2017-09-16T08:31:39.231Z,70.30
2017-09-16T08:34:06.722Z,69.50
2017-09-16T08:36:34.695Z,68.10
2017-09-16T08:39:02.335Z,68.90
2017-09-16T08:41:30.525Z,68.40
2017-09-16T08:43:58.787Z,67.30
2017-09-16T08:46:27.379Z,68.30
2017-09-16T08:48:54.865Z,68.20
2017-09-16T08:51:22.325Z,68.00
2017-09-16T08:53:50.194Z,66.90
2017-09-16T08:56:18.814Z,67.30
2017-09-16T08:58:46.589Z,67.00
2017-09-16T09:01:14.659Z,66.50
2017-09-16T09:03:43.649Z,66.10
2017-09-16T09:06:12.682Z,66.60
2017-09-16T09:08:40.841Z,66.50
2017-09-16T09:11:08.544Z,66.90
2017-09-16T09:13:36.073Z,66.20
2017-09-16T09:16:04.325Z,66.30
2017-09-16T09:18:33.311Z,65.40
2017-09-16T09:21:01.538Z,65.20
2017-09-16T09:23:29.055Z,65.20
2017-09-16T09:25:57.023Z,64.90
2017-09-16T09:28:25.418Z,64.90
2017-09-16T09:30:53.647Z,65.40
2017-09-16T09:33:21.102Z,65.10
2017-09-16T09:35:50.021Z,65.10
2017-09-16T09:38:18.025Z,64.40
2017-09-16T09:40:45.482Z,64.30
2017-09-16T09:43:13.747Z,63.40
2017-09-16T09:45:41.698Z,63.30
2017-09-16T09:48:09.423Z,62.40
2017-09-16T09:50:37.565Z,63.20
2017-09-16T09:53:05.018Z,62.10
2017-09-16T09:55:33.038Z,63.90
2017-09-16T09:58:01.806Z,62.20
2017-09-16T10:00:29.563Z,61.70
2017-09-16T10:02:57.289Z,61.70
2017-09-16T10:05:24.817Z,61.40
2017-09-16T10:07:54.070Z,61.90
2017-09-16T10:10:21.561Z,61.90
2017-09-16T10:12:49.037Z,61.00
2017-09-16T10:15:16.489Z,60.60
2017-09-16T10:17:44.032Z,61.00
2017-09-16T10:20:12.041Z,61.50
2017-09-16T10:22:39.512Z,61.80
2017-09-16T10:25:07.414Z,62.80
2017-09-16T10:27:35.628Z,60.80
2017-09-16T10:30:03.189Z,60.80
2017-09-16T10:32:30.648Z,61.80
2017-09-16T10:34:58.291Z,61.20
2017-09-16T10:37:26.534Z,61.50
2017-09-16T10:39:54.931Z,61.40
2017-09-16T10:42:22.421Z,60.70
2017-09-16T10:44:50.773Z,61.40
2017-09-16T10:47:19.132Z,60.50
2017-09-16T10:49:46.590Z,62.00
2017-09-16T10:52:14.074Z,61.40
2017-09-16T10:54:42.880Z,59.30
2017-09-16T10:57:11.095Z,59.30
2017-09-16T10:59:39.316Z,58.50
2017-09-16T11:02:07.775Z,58.40
2017-09-16T11:04:35.422Z,58.60
2017-09-16T11:07:03.348Z,57.50
2017-09-16T11:09:30.867Z,58.40
2017-09-16T11:11:59.174Z,57.90
2017-09-16T11:14:26.639Z,57.80
2017-09-16T11:16:54.305Z,57.20
2017-09-16T11:19:22.872Z,55.50
2017-09-16T11:21:51.112Z,54.80
2017-09-16T11:24:18.682Z,54.90
2017-09-16T11:26:46.739Z,54.60
2017-09-16T11:29:14.989Z,53.70
2017-09-16T11:31:43.212Z,53.60
2017-09-16T11:34:11.610Z,52.90
2017-09-16T11:36:39.581Z,52.50
2017-09-16T11:39:07.825Z,54.40
2017-09-16T11:41:36.844Z,54.90
2017-09-16T11:44:04.306Z,54.80
2017-09-16T11:46:33.379Z,55.00
2017-09-16T11:49:00.926Z,55.60
2017-09-16T11:51:28.395Z,55.30
2017-09-16T11:53:56.675Z,55.20
2017-09-16T11:56:25.646Z,54.20
2017-09-16T11:58:53.397Z,54.20
2017-09-16T12:01:22.421Z,54.70
2017-09-16T12:03:49.971Z,54.70
2017-09-16T12:06:18.473Z,54.20
2017-09-16T12:08:46.110Z,53.80
2017-09-16T12:11:13.638Z,54.40
2017-09-16T12:13:41.417Z,54.60
2017-09-16T12:16:08.927Z,54.00
2017-09-16T12:18:36.381Z,53.30
2017-09-16T12:21:05.076Z,53.90
2017-09-16T12:23:33.402Z,53.80
2017-09-16T12:26:02.335Z,53.70
2017-09-16T12:28:29.830Z,53.90
2017-09-16T12:30:57.295Z,53.80
2017-09-16T12:33:26.479Z,53.70
2017-09-16T12:35:54.817Z,56.00
2017-09-16T12:38:22.298Z,56.00
2017-09-16T12:40:50.741Z,56.90
2017-09-16T12:43:18.971Z,57.70
2017-09-16T12:45:46.936Z,57.70
2017-09-16T12:48:14.828Z,58.20
2017-09-16T12:50:42.386Z,58.40
2017-09-16T12:53:09.883Z,58.00
2017-09-16T12:55:38.808Z,58.30
2017-09-16T12:58:06.745Z,57.90
2017-09-16T13:00:34.226Z,57.90
2017-09-16T13:03:02.759Z,58.10
2017-09-16T13:05:31.485Z,58.50
2017-09-16T13:07:59.285Z,57.30
2017-09-16T13:10:26.790Z,58.00
2017-09-16T13:12:54.263Z,58.30
2017-09-16T13:15:21.822Z,58.40
2017-09-16T13:17:49.458Z,58.10
2017-09-16T13:20:18.138Z,58.40
2017-09-16T13:22:46.557Z,57.90
2017-09-16T13:25:15.317Z,56.60
2017-09-16T13:27:43.576Z,56.70
2017-09-16T13:30:12.514Z,57.20
2017-09-16T13:32:41.111Z,57.10
2017-09-16T13:35:09.655Z,57.30
2017-09-16T13:37:37.356Z,56.70
2017-09-16T13:40:06.641Z,54.30
2017-09-16T13:42:34.223Z,54.30
2017-09-16T13:45:02.495Z,54.20
2017-09-16T13:47:30.465Z,54.00
2017-09-16T13:49:59.505Z,53.70
2017-09-16T13:52:27.051Z,54.30
2017-09-16T13:54:55.255Z,53.90
2017-09-16T13:57:23.307Z,53.90
2017-09-16T13:59:50.817Z,53.90
2017-09-16T14:02:18.921Z,54.10
2017-09-16T14:04:47.128Z,54.90
2017-09-16T14:07:14.972Z,54.80
2017-09-16T14:09:42.426Z,54.90
2017-09-16T14:12:09.951Z,55.80
2017-09-16T14:14:37.493Z,53.60
2017-09-16T14:17:04.982Z,53.10
2017-09-16T14:19:32.602Z,53.30
2017-09-16T14:22:00.534Z,54.00
2017-09-16T14:24:28.021Z,53.80
2017-09-16T14:26:56.770Z,54.40
2017-09-16T14:29:25.416Z,52.00
2017-09-16T14:31:52.921Z,52.00
2017-09-16T14:34:21.178Z,49.90
2017-09-16T14:36:50.427Z,49.80
2017-09-16T14:39:17.984Z,49.70
2017-09-16T14:41:45.486Z,49.10
2017-09-16T14:44:12.944Z,46.10
2017-09-16T14:46:40.932Z,44.70
2017-09-16T14:49:09.149Z,45.60
2017-09-16T14:51:37.175Z,45.50
2017-09-16T14:54:04.616Z,44.60
2017-09-16T14:56:32.630Z,45.30
2017-09-16T14:59:00.495Z,44.60
2017-09-16T15:01:29.358Z,43.90
2017-09-16T15:03:58.088Z,44.80
2017-09-16T15:06:26.199Z,44.70
2017-09-16T15:08:54.440Z,44.10
2017-09-16T15:11:21.955Z,44.10
2017-09-16T15:13:49.468Z,45.10
2017-09-16T15:16:17.840Z,44.80
2017-09-16T15:18:45.355Z,45.10
2017-09-16T15:21:14.748Z,44.20
2017-09-16T15:23:42.214Z,44.10
2017-09-16T15:26:10.345Z,42.00
2017-09-16T15:28:38.693Z,42.30
2017-09-16T15:31:06.933Z,41.40
2017-09-16T15:33:34.641Z,41.40
2017-09-16T15:36:02.762Z,41.00
2017-09-16T15:38:31.152Z,40.50
2017-09-16T15:40:59.526Z,41.10
2017-09-16T15:43:27.033Z,40.80
2017-09-16T15:45:55.234Z,41.60
2017-09-16T15:48:23.038Z,41.60
2017-09-16T15:50:50.672Z,41.60
2017-09-16T15:53:20.153Z,43.50
2017-09-16T15:55:48.898Z,43.90
2017-09-16T15:58:17.138Z,43.50
2017-09-16T16:00:45.965Z,43.70
2017-09-16T16:03:14.788Z,44.20
2017-09-16T16:05:42.271Z,44.10
2017-09-16T16:08:14.788Z,45.90
2017-09-16T16:10:42.686Z,45.80
2017-09-16T16:13:10.967Z,49.10
2017-09-16T16:15:39.187Z,47.00
2017-09-16T16:18:06.741Z,46.90
2017-09-16T16:20:34.386Z,47.60
2017-09-16T16:23:03.525Z,48.90
2017-09-16T16:25:31.683Z,49.10
2017-09-16T16:27:59.170Z,49.30
2017-09-16T16:30:26.757Z,49.20
2017-09-16T16:32:54.321Z,50.00
2017-09-16T16:35:21.817Z,49.70
2017-09-16T16:37:50.429Z,47.30
2017-09-16T16:40:17.980Z,47.20
2017-09-16T16:42:45.682Z,49.10
2017-09-16T16:45:13.231Z,49.40
2017-09-16T16:47:41.089Z,50.80
2017-09-16T16:50:08.647Z,51.60
2017-09-16T16:52:36.649Z,49.40
2017-09-16T16:55:05.150Z,50.20
2017-09-16T16:57:33.144Z,50.20
2017-09-16T17:00:00.609Z,50.70
2017-09-16T17:02:29.471Z,51.50
2017-09-16T17:04:57.632Z,51.50
2017-09-16T17:07:25.749Z,51.80
2017-09-16T17:09:53.492Z,52.50
2017-09-16T17:12:21.001Z,52.70
2017-09-16T17:14:48.665Z,52.80
2017-09-16T17:17:16.138Z,53.90
2017-09-16T17:19:43.669Z,53.90
2017-09-16T17:22:12.288Z,54.20
2017-09-16T17:24:40.697Z,54.40
2017-09-16T17:27:09.039Z,54.20
2017-09-16T17:29:36.532Z,54.80
2017-09-16T17:32:04.020Z,55.40
2017-09-16T17:34:31.543Z,55.90
2017-09-16T17:36:59.872Z,56.70
2017-09-16T17:39:27.492Z,56.70
2017-09-16T17:41:55.182Z,57.10
2017-09-16T17:44:24.178Z,57.90
2017-09-16T17:46:52.877Z,58.30
2017-09-16T17:49:20.401Z,58.20
2017-09-16T17:51:47.915Z,58.40
2017-09-16T17:54:15.370Z,58.70
2017-09-16T17:56:45.468Z,59.10
2017-09-16T17:59:13.876Z,59.30
2017-09-16T18:01:42.630Z,59.20
2017-09-16T18:04:10.684Z,59.40
2017-09-16T18:06:38.743Z,59.70
2017-09-16T18:09:06.200Z,59.90
2017-09-16T18:11:33.725Z,60.10
2017-09-16T18:14:01.232Z,60.40
2017-09-16T18:16:29.494Z,60.70
2017-09-16T18:18:57.784Z,61.00
2017-09-16T18:21:25.280Z,61.00
2017-09-16T18:23:53.938Z,62.30
2017-09-16T18:26:22.173Z,61.70
2017-09-16T18:28:49.631Z,62.00
2017-09-16T18:31:17.935Z,62.00
2017-09-16T18:33:46.682Z,61.80
2017-09-16T18:36:15.665Z,62.30
2017-09-16T18:38:43.132Z,62.20
2017-09-16T18:41:10.767Z,62.50
2017-09-16T18:43:39.005Z,62.40
2017-09-16T18:46:08.696Z,62.50
2017-09-16T18:48:36.166Z,62.50
2017-09-16T18:51:05.059Z,62.40
2017-09-16T18:53:32.545Z,62.30
2017-09-16T18:56:00.673Z,62.40
2017-09-16T18:58:28.671Z,62.60
2017-09-16T19:00:57.541Z,62.90
2017-09-16T19:03:25.007Z,62.80
2017-09-16T19:05:53.274Z,63.10
2017-09-16T19:08:21.259Z,63.00
2017-09-16T19:10:48.711Z,63.00
2017-09-16T19:13:16.582Z,63.00
2017-09-16T19:15:44.049Z,63.10
2017-09-16T19:18:12.555Z,61.90
2017-09-16T19:20:40.285Z,61.80
2017-09-16T19:23:08.023Z,60.80
2017-09-16T19:25:36.169Z,62.20
2017-09-16T19:28:04.417Z,60.50
2017-09-16T19:30:32.733Z,61.90
2017-09-16T19:33:00.511Z,61.00
2017-09-16T19:35:28.476Z,60.80
2017-09-16T19:37:56.793Z,61.10
2017-09-16T19:40:24.240Z,61.00
2017-09-16T19:42:51.889Z,61.80
2017-09-16T19:45:19.341Z,62.00
2017-09-16T19:47:47.149Z,61.90
2017-09-16T19:50:15.367Z,61.40
2017-09-16T19:52:43.099Z,61.30
2017-09-16T19:55:11.420Z,61.80
2017-09-16T19:57:40.481Z,62.20
2017-09-16T20:00:08.721Z,62.40
2017-09-16T20:02:36.877Z,62.20
2017-09-16T20:05:04.405Z,62.60
2017-09-16T20:07:32.169Z,62.30
2017-09-16T20:09:59.730Z,62.40
2017-09-16T20:12:28.216Z,62.60
2017-09-16T20:14:56.564Z,61.60
2017-09-16T20:17:24.837Z,62.80
2017-09-16T20:19:52.677Z,62.80
2017-09-16T20:22:20.997Z,63.00
2017-09-16T20:24:50.770Z,62.90
2017-09-16T20:27:19.038Z,63.10
2017-09-16T20:29:46.521Z,62.90
2017-09-16T20:32:15.097Z,62.70
2017-09-16T20:34:43.330Z,62.70
2017-09-16T20:37:10.799Z,62.60
2017-09-16T20:39:39.058Z,63.40
2017-09-16T20:42:07.270Z,63.50
2017-09-16T20:44:35.217Z,63.50
2017-09-16T20:47:03.945Z,63.80
2017-09-16T20:49:32.173Z,63.80
2017-09-16T20:51:59.688Z,63.70
2017-09-16T20:54:27.157Z,63.80
2017-09-16T20:56:55.087Z,63.80
2017-09-16T20:59:22.623Z,63.90
2017-09-16T21:01:50.638Z,64.10
2017-09-16T21:04:19.704Z,64.10
2017-09-16T21:06:49.342Z,64.20
2017-09-16T21:09:16.882Z,64.00
2017-09-16T21:11:45.600Z,64.10
2017-09-16T21:14:13.060Z,64.20
2017-09-16T21:16:41.327Z,64.40
2017-09-16T21:19:09.575Z,64.30
2017-09-16T21:21:38.456Z,64.50
2017-09-16T21:24:07.375Z,64.50
2017-09-16T21:26:36.713Z,64.40
2017-09-16T21:29:04.993Z,64.80
2017-09-16T21:31:32.835Z,64.80
2017-09-16T21:34:01.057Z,64.90
2017-09-16T21:36:28.520Z,64.90
2017-09-16T21:38:56.850Z,64.90
2017-09-16T21:41:24.305Z,64.90
2017-09-16T21:43:52.029Z,64.70
2017-09-16T21:46:20.379Z,64.60
2017-09-16T21:48:48.400Z,64.60
2017-09-16T21:51:16.646Z,64.90
2017-09-16T21:53:44.902Z,64.90
2017-09-16T21:56:13.698Z,65.10
2017-09-16T21:58:42.649Z,65.10
2017-09-16T22:01:11.266Z,65.30
2017-09-16T22:03:39.632Z,65.70
2017-09-16T22:06:08.916Z,65.60
2017-09-16T22:08:36.746Z,65.50
2017-09-16T22:11:04.450Z,65.40
2017-09-16T22:13:31.908Z,65.60
2017-09-16T22:16:00.213Z,66.00
2017-09-16T22:18:27.665Z,66.00
2017-09-16T22:20:55.156Z,66.00
2017-09-16T22:23:24.631Z,66.00
2017-09-16T22:25:54.041Z,66.00
2017-09-16T22:28:21.503Z,65.90
2017-09-16T22:30:48.959Z,65.90
2017-09-16T22:33:16.441Z,66.00
2017-09-16T22:35:45.168Z,66.00
2017-09-16T22:38:12.639Z,66.40
2017-09-16T22:40:40.810Z,66.30
2017-09-16T22:43:09.029Z,66.30
2017-09-16T22:45:36.535Z,66.30
2017-09-16T22:48:04.536Z,66.30
2017-09-16T22:50:32.009Z,66.30
2017-09-16T22:53:00.423Z,66.30
2017-09-16T22:55:28.318Z,66.30
2017-09-16T22:57:57.418Z,66.10
2017-09-16T23:00:24.894Z,66.00
2017-09-16T23:02:52.898Z,65.70
2017-09-16T23:05:21.569Z,65.20
2017-09-16T23:07:50.189Z,64.90
2017-09-16T23:10:17.786Z,64.90
2017-09-16T23:12:45.986Z,65.20
2017-09-16T23:15:14.661Z,65.10
2017-09-16T23:17:42.104Z,65.60
2017-09-16T23:20:09.555Z,65.50
2017-09-16T23:22:37.224Z,65.80
2017-09-16T23:25:05.656Z,66.00
2017-09-16T23:27:33.110Z,66.10
2017-09-16T23:30:00.681Z,66.00
2017-09-16T23:32:29.052Z,66.40
2017-09-16T23:34:57.276Z,66.00
2017-09-16T23:37:24.798Z,65.90
2017-09-16T23:39:52.553Z,65.80
2017-09-16T23:42:20.000Z,65.70
2017-09-16T23:44:47.469Z,65.60
2017-09-16T23:47:16.052Z,65.50
2017-09-16T23:49:45.759Z,65.40
2017-09-16T23:52:13.238Z,65.40
2017-09-16T23:54:41.408Z,65.40
2017-09-16T23:57:09.579Z,65.40
2017-09-16T23:59:37.907Z,65.00
